Time;durP1;ratioP1;P1;durP2;ratioP2;P2;SDS_P1;SDS_P2;PMS_P1;PMS_P2;Temp;Humidity;BMP_temperature;BMP_pressure;BME280_temperature;BME280_humidity;BME280_pressure;Samples;Min_cycle;Max_cycle;Signal;HPM_P1;HPM_P2
2022/01/20 00:01:59;;;;;;;12.30;2.67;;;;;;;4.72;94.27;102543.31;5072819;28;20075;-76
2022/01/20 00:04:35;;;;;;;12.35;2.28;;;;;;;4.62;95.32;102531.00;5066494;28;20039;-76
2022/01/20 00:23:14;;;;;;;12.00;2.00;;;;;;;4.48;99.49;102562.38;5072088;28;20040;-76
2022/01/20 00:26:19;;;;;;;17.70;2.63;;;;;;;4.55;100.00;102565.94;5072446;28;20037;-76
2022/01/20 00:33:43;;;;;;;12.48;2.10;;;;;;;4.76;97.69;102552.97;5076460;28;20036;-79
2022/01/20 00:38:37;;;;;;;12.85;2.25;;;;;;;4.89;93.88;102567.06;5075315;28;20119;-77
2022/01/20 00:41:04;;;;;;;16.30;2.35;;;;;;;4.93;93.40;102565.34;5075649;28;20056;-75
2022/01/20 00:43:30;;;;;;;12.02;2.05;;;;;;;4.87;92.77;102574.06;5075255;28;20027;-79
2022/01/20 00:45:55;;;;;;;16.98;2.50;;;;;;;4.88;91.43;102567.03;5076077;28;20021;-76
2022/01/20 00:48:21;;;;;;;17.95;2.60;;;;;;;4.97;91.06;102556.59;5075649;28;20159;-75
2022/01/20 00:50:47;;;;;;;16.15;1.95;;;;;;;5.03;89.48;102567.13;5075819;28;20460;-77
2022/01/20 00:53:13;;;;;;;17.65;2.83;;;;;;;5.09;89.91;102559.31;5075222;28;20476;-78
2022/01/20 00:55:39;;;;;;;12.10;2.20;;;;;;;5.12;90.28;102571.56;5076316;28;20021;-78
2022/01/20 00:58:06;;;;;;;18.50;2.45;;;;;;;5.16;91.45;102575.97;5075352;28;20064;-76
2022/01/20 01:00:31;;;;;;;13.38;2.70;;;;;;;5.13;91.57;102567.19;5075542;28;20042;-77
2022/01/20 01:02:57;;;;;;;14.20;2.63;;;;;;;5.06;92.10;102575.06;5075179;28;20115;-75
2022/01/20 01:05:24;;;;;;;14.30;2.65;;;;;;;5.00;93.83;102571.50;5075405;28;20043;-77
2022/01/20 01:07:51;;;;;;;16.40;2.45;;;;;;;4.95;94.12;102574.09;5075485;28;20082;-79
2022/01/20 01:10:26;;;;;;;24.88;2.53;;;;;;;4.91;95.29;102565.31;5074974;28;20468;-77
2022/01/20 01:13:03;;;;;;;17.40;2.63;;;;;;;4.90;94.76;102566.19;5075252;28;20081;-77
2022/01/20 01:15:35;;;;;;;14.77;2.55;;;;;;;4.97;95.83;102568.84;5075090;28;20543;-79
2022/01/20 01:23:18;;;;;;;14.52;2.72;;;;;;;5.14;94.08;102571.56;5074605;28;20131;-76
2022/01/20 01:25:43;;;;;;;13.63;2.05;;;;;;;5.13;89.83;102561.94;5074988;28;20103;-79
2022/01/20 01:28:08;;;;;;;13.30;2.10;;;;;;;5.15;88.89;102565.47;5075086;28;20465;-75
2022/01/20 01:31:18;;;;;;;9.88;1.23;;;;;;;5.09;87.99;102566.31;5074352;28;20025;-75
2022/01/20 01:33:19;;;;;;;7.28;1.77;;;;;;;5.05;85.47;102573.28;5073711;28;20068;-77
2022/01/20 01:35:45;;;;;;;3.25;1.00;;;;;;;5.06;85.63;102569.81;5075299;28;20086;-77
2022/01/20 01:40:40;;;;;;;4.78;1.25;;;;;;;4.89;87.22;102568.81;5074874;28;20133;-80
2022/01/20 01:43:13;;;;;;;6.25;1.77;;;;;;;4.80;87.64;102568.75;5074847;28;20075;-79
2022/01/20 01:45:41;;;;;;;11.60;1.77;;;;;;;4.76;89.52;102579.22;5073460;28;20484;-79
2022/01/20 01:48:07;;;;;;;14.98;2.67;;;;;;;4.85;89.32;102583.66;5074546;28;20067;-76
2022/01/20 01:50:33;;;;;;;11.30;1.80;;;;;;;4.93;89.21;102594.22;5074570;28;20114;-79
2022/01/20 01:53:02;;;;;;;19.25;2.50;;;;;;;4.90;89.50;102589.81;5074038;28;20028;-78
2022/01/20 01:55:28;;;;;;;16.50;2.50;;;;;;;4.84;89.72;102592.38;5074142;28;20033;-79
2022/01/20 01:57:54;;;;;;;18.75;3.03;;;;;;;4.86;89.73;102593.28;5074502;28;20175;-77
2022/01/20 02:00:21;;;;;;;14.07;2.63;;;;;;;4.92;89.24;102593.34;5074370;28;20132;-77
2022/01/20 02:02:46;;;;;;;25.27;3.10;;;;;;;5.00;87.70;102600.38;5073770;28;20120;-79
2022/01/20 02:05:14;;;;;;;17.40;3.00;;;;;;;5.02;87.94;102603.91;5074213;28;20032;-76
2022/01/20 02:20:54;;;;;;;20.08;2.38;;;;;;;4.96;87.38;102588.97;5074061;28;20036;-77
2022/01/20 02:23:21;;;;;;;16.38;2.83;;;;;;;4.91;87.15;102582.81;5074053;28;20029;-79
2022/01/20 02:25:48;;;;;;;16.65;3.00;;;;;;;4.91;87.14;102581.06;5073479;28;20483;-79
2022/01/20 02:28:13;;;;;;;20.40;2.70;;;;;;;4.87;87.33;102589.81;5071594;28;20033;-78
2022/01/20 02:30:40;;;;;;;17.42;2.92;;;;;;;4.87;86.64;102576.69;5053792;28;20537;-77
2022/01/20 02:33:08;;;;;;;21.27;3.10;;;;;;;4.82;86.20;102583.66;5062322;28;20081;-77
2022/01/20 02:35:39;;;;;;;28.15;3.92;;;;;;;4.74;86.58;102588.84;5072802;28;20111;-79
2022/01/20 02:38:11;;;;;;;13.70;2.15;;;;;;;4.69;86.37;102580.06;5054134;28;20096;-76
2022/01/20 02:45:52;;;;;;;18.88;3.38;;;;;;;4.82;85.86;102570.53;5067960;28;20059;-78
2022/01/20 02:48:18;;;;;;;18.63;3.05;;;;;;;4.97;85.48;102574.13;5073128;28;20025;-78
2022/01/20 02:50:43;;;;;;;24.13;2.95;;;;;;;5.03;84.98;102572.41;5073420;28;20158;-77
2022/01/20 02:53:09;;;;;;;18.15;2.80;;;;;;;5.09;85.34;102566.31;5073799;28;20077;-75
2022/01/20 02:55:34;;;;;;;21.25;3.33;;;;;;;5.13;86.18;102575.06;5073102;28;20034;-79
2022/01/20 02:58:00;;;;;;;15.80;2.70;;;;;;;5.16;87.29;102569.84;5072520;28;20396;-75
2022/01/20 03:00:25;;;;;;;12.20;2.50;;;;;;;5.05;86.95;102577.66;5072809;28;20033;-76
2022/01/20 03:02:51;;;;;;;13.48;2.80;;;;;;;4.95;87.29;102578.47;5054847;28;20033;-79
2022/01/20 03:05:16;;;;;;;11.93;2.47;;;;;;;4.87;87.33;102575.78;5058132;28;20377;-76
2022/01/20 03:07:42;;;;;;;10.85;2.55;;;;;;;4.89;87.51;102579.31;5072493;28;20068;-75
2022/01/20 03:10:09;;;;;;;14.15;2.42;;;;;;;4.90;87.74;102574.06;5073568;28;20031;-79
2022/01/20 03:12:34;;;;;;;14.80;2.22;;;;;;;4.92;87.96;102574.97;5072956;28;20102;-77
2022/01/20 03:15:00;;;;;;;13.75;3.13;;;;;;;4.92;89.00;102567.09;5062544;28;20370;-77
2022/01/20 03:17:25;;;;;;;20.83;3.22;;;;;;;4.99;89.16;102588.13;5063770;28;20066;-78
2022/01/20 03:19:50;;;;;;;24.10;2.90;;;;;;;5.00;89.54;102588.13;5072600;28;20035;-76
2022/01/20 03:22:16;;;;;;;19.85;3.10;;;;;;;5.00;89.50;102590.78;5072915;28;20028;-75
2022/01/20 03:24:41;;;;;;;12.75;2.95;;;;;;;4.97;89.76;102592.50;5072696;28;20391;-77
2022/01/20 03:27:07;;;;;;;16.33;2.55;;;;;;;4.93;88.86;102595.06;5072491;28;20031;-75
2022/01/20 03:29:32;;;;;;;12.63;2.63;;;;;;;4.88;87.41;102606.44;5072489;28;20058;-76
2022/01/20 03:31:58;;;;;;;15.90;2.13;;;;;;;4.83;88.67;102595.00;5072833;28;20024;-75
2022/01/20 03:34:23;;;;;;;14.93;2.20;;;;;;;4.78;89.58;102586.22;5072417;28;20107;-74
2022/01/20 03:36:49;;;;;;;16.55;2.90;;;;;;;4.71;90.27;102598.44;5072784;28;20024;-77
2022/01/20 03:39:15;;;;;;;16.05;2.58;;;;;;;4.64;90.55;102592.22;5071951;28;20488;-78
2022/01/20 03:41:40;;;;;;;18.50;2.38;;;;;;;4.68;91.54;102619.38;5053569;28;20567;-78
2022/01/20 03:44:06;;;;;;;11.13;1.80;;;;;;;4.61;94.98;102631.56;5052879;28;20025;-79
2022/01/20 03:46:32;;;;;;;8.65;1.50;;;;;;;4.45;96.63;102650.66;5052826;28;20089;-78
2022/01/20 03:49:08;;;;;;;11.00;2.20;;;;;;;4.26;98.47;102640.88;5059358;28;20138;-75
2022/01/20 03:51:33;;;;;;;8.48;1.67;;;;;;;4.13;98.93;102631.13;5072771;28;20114;-76
2022/01/20 03:53:59;;;;;;;8.07;1.50;;;;;;;4.08;100.00;102632.81;5072243;28;20028;-77
2022/01/20 03:56:25;;;;;;;4.15;1.13;;;;;;;4.05;100.00;102636.28;5072848;28;20037;-75
2022/01/20 03:58:51;;;;;;;8.25;1.10;;;;;;;3.98;100.00;102630.91;5072005;28;20052;-77
2022/01/20 04:01:17;;;;;;;6.57;1.38;;;;;;;3.94;100.00;102630.03;5071355;28;20495;-77
2022/01/20 04:03:44;;;;;;;6.38;1.38;;;;;;;3.93;100.00;102625.66;5072466;28;20055;-75
2022/01/20 04:06:09;;;;;;;7.50;1.60;;;;;;;3.90;100.00;102623.88;5072332;28;20532;-74
2022/01/20 04:08:44;;;;;;;6.05;1.80;;;;;;;3.88;100.00;102638.69;5072231;28;20036;-75
2022/01/20 04:11:16;;;;;;;7.45;1.10;;;;;;;3.88;100.00;102632.56;5071780;28;20353;-75
2022/01/20 04:13:41;;;;;;;9.18;1.42;;;;;;;3.85;100.00;102638.66;5072438;28;20033;-77
2022/01/20 04:16:13;;;;;;;8.55;1.45;;;;;;;3.77;100.00;102642.91;5072609;28;20028;-77
2022/01/20 04:18:51;;;;;;;;;;;;;;;3.72;100.00;102627.16;5073129;28;20097;-75
2022/01/20 04:21:18;;;;;;;9.65;1.67;;;;;;;3.73;100.00;102641.13;5071319;28;20021;-75
2022/01/20 04:23:43;;;;;;;10.00;1.48;;;;;;;3.78;100.00;102657.78;5072281;28;20107;-75
2022/01/20 04:26:09;;;;;;;7.30;1.30;;;;;;;3.82;100.00;102654.31;5072208;28;20119;-76
2022/01/20 04:28:34;;;;;;;9.38;1.40;;;;;;;3.86;100.00;102655.25;5072191;28;20017;-77
2022/01/20 04:30:59;;;;;;;12.52;1.73;;;;;;;3.90;100.00;102655.31;5071832;28;20432;-76
2022/01/20 04:33:24;;;;;;;13.93;1.85;;;;;;;3.91;100.00;102649.22;5072131;28;20107;-78
2022/01/20 04:35:50;;;;;;;13.60;1.70;;;;;;;3.91;100.00;102648.31;5071769;28;20024;-77
2022/01/20 04:38:15;;;;;;;10.65;1.85;;;;;;;3.95;96.78;102655.34;5071965;28;20032;-77
2022/01/20 04:40:42;;;;;;;13.35;2.13;;;;;;;4.01;95.64;102655.44;5072247;28;20020;-77
2022/01/20 04:43:08;;;;;;;11.85;1.90;;;;;;;4.04;95.26;102660.72;5071344;28;20067;-77
2022/01/20 04:45:39;;;;;;;13.05;2.00;;;;;;;4.07;95.67;102673.00;5072196;28;20025;-75
2022/01/20 04:59:00;;;;;;;17.02;2.83;;;;;;;3.46;100.00;102712.38;5071833;28;20056;-74
2022/01/20 05:01:25;;;;;;;11.25;2.88;;;;;;;3.40;100.00;102705.28;5072249;28;20024;-74
2022/01/20 05:03:51;;;;;;;24.05;3.38;;;;;;;3.36;100.00;102701.72;5070936;28;20036;-75
2022/01/20 05:06:17;;;;;;;22.33;3.45;;;;;;;3.33;99.42;102716.53;5071481;28;20035;-78
2022/01/20 05:08:42;;;;;;;21.13;2.65;;;;;;;3.32;98.88;102718.25;5072243;28;20461;-74
2022/01/20 05:11:09;;;;;;;21.58;2.95;;;;;;;3.33;98.73;102721.78;5071906;28;20452;-73
2022/01/20 05:13:40;;;;;;;20.15;3.03;;;;;;;3.32;98.98;102722.63;5071732;28;20044;-78
2022/01/20 05:16:05;;;;;;;23.60;3.72;;;;;;;3.32;98.95;102723.50;5075061;28;20499;-74
2022/01/20 05:18:31;;;;;;;24.55;3.05;;;;;;;3.35;99.15;102730.50;5074995;28;20025;-77
2022/01/20 05:20:56;;;;;;;25.23;3.70;;;;;;;3.38;98.63;102725.34;5075099;28;20036;-76
2022/01/20 05:23:22;;;;;;;26.38;3.97;;;;;;;3.41;98.72;102728.88;5074759;28;20042;-78
2022/01/20 05:25:47;;;;;;;24.83;3.40;;;;;;;3.40;98.83;102729.75;5072790;28;20105;-74
2022/01/20 05:28:12;;;;;;;22.02;3.63;;;;;;;3.37;99.08;102727.06;5075429;28;20115;-79
2022/01/20 05:30:40;;;;;;;25.10;3.38;;;;;;;3.39;97.62;102729.69;5075249;28;20105;-75
2022/01/20 05:33:06;;;;;;;19.70;3.05;;;;;;;3.42;96.84;102741.09;5075323;28;20070;-78
2022/01/20 05:35:31;;;;;;;25.23;3.50;;;;;;;3.44;95.66;102735.91;5074506;28;20029;-79
2022/01/20 05:37:57;;;;;;;26.00;3.50;;;;;;;3.57;91.29;102743.09;5074696;28;20024;-74
2022/01/20 05:40:23;;;;;;;20.10;3.80;;;;;;;3.66;90.26;102751.94;5075003;28;20044;-78
2022/01/20 05:42:48;;;;;;;11.02;2.53;;;;;;;3.77;85.15;102747.72;5075115;28;20021;-78
2022/01/20 05:45:14;;;;;;;15.75;2.60;;;;;;;3.89;81.83;102752.28;5073827;28;20024;-77
2022/01/20 05:47:48;;;;;;;11.95;2.38;;;;;;;4.07;78.29;102755.13;5074962;28;20024;-75
2022/01/20 05:50:18;;;;;;;9.80;1.67;;;;;;;4.15;77.19;102751.75;5075102;28;20452;-74
2022/01/20 05:52:45;;;;;;;11.00;1.90;;;;;;;4.21;77.37;102751.84;5074257;28;20035;-75
2022/01/20 05:55:13;;;;;;;12.68;2.17;;;;;;;4.23;75.92;102765.81;5073790;28;20357;-77
2022/01/20 05:57:39;;;;;;;11.00;2.00;;;;;;;4.22;77.65;102764.06;5074297;28;20040;-75
2022/01/20 06:00:07;;;;;;;17.00;2.30;;;;;;;4.23;77.92;102771.97;5074624;28;20036;-76
2022/01/20 06:02:36;;;;;;;21.08;2.88;;;;;;;4.22;79.73;102771.91;5074217;28;20024;-78
2022/01/20 06:05:02;;;;;;;13.15;3.22;;;;;;;4.20;80.33;102777.16;5074037;28;20033;-79
2022/01/20 06:07:27;;;;;;;17.30;2.60;;;;;;;4.16;82.32;102777.97;5073574;28;20479;-78
2022/01/20 06:09:53;;;;;;;14.82;2.72;;;;;;;4.12;82.07;102780.53;5074391;28;20039;-75
2022/01/20 06:12:18;;;;;;;18.58;2.80;;;;;;;4.08;83.15;102782.25;5074531;28;20020;-80
2022/01/20 06:14:43;;;;;;;16.85;2.72;;;;;;;4.01;83.78;102790.88;5073945;28;20033;-75
2022/01/20 06:17:08;;;;;;;13.45;2.30;;;;;;;3.96;83.62;102788.19;5073450;28;20051;-78
2022/01/20 06:19:34;;;;;;;16.33;2.40;;;;;;;3.94;83.07;102779.44;5073706;28;20025;-78
2022/01/20 06:21:59;;;;;;;12.85;2.15;;;;;;;3.93;83.55;102781.16;5074108;28;20096;-79
2022/01/20 06:24:24;;;;;;;15.23;2.45;;;;;;;3.87;84.13;102782.81;5058435;28;20024;-79
2022/01/20 06:26:50;;;;;;;8.45;1.60;;;;;;;3.82;81.58;102792.34;5060541;28;20043;-78
2022/01/20 06:29:15;;;;;;;14.52;1.80;;;;;;;3.80;81.59;102783.59;5073079;28;20093;-77
2022/01/20 06:31:40;;;;;;;11.93;2.33;;;;;;;3.74;81.11;102794.88;5074071;28;20483;-77
2022/01/20 06:34:06;;;;;;;12.05;2.00;;;;;;;3.72;80.44;102792.22;5073769;28;20033;-77
2022/01/20 06:36:31;;;;;;;10.77;1.90;;;;;;;3.65;80.89;102797.34;5073572;28;20428;-77
2022/01/20 06:38:56;;;;;;;11.02;2.40;;;;;;;3.62;78.54;102795.56;5072935;28;20452;-78
2022/01/20 06:41:22;;;;;;;7.53;1.58;;;;;;;3.58;77.56;102789.41;5073404;28;20031;-78
2022/01/20 06:43:47;;;;;;;10.30;2.17;;;;;;;3.59;76.35;102792.88;5073533;28;20107;-75
2022/01/20 06:46:12;;;;;;;4.82;1.40;;;;;;;3.61;75.43;102799.03;5073628;28;20093;-76
2022/01/20 06:48:37;;;;;;;9.68;2.03;;;;;;;3.63;74.74;102807.78;5072502;28;20020;-78
2022/01/20 06:51:03;;;;;;;9.20;1.85;;;;;;;3.55;76.07;102818.16;5073208;28;20048;-76
2022/01/20 06:53:28;;;;;;;9.93;1.60;;;;;;;3.51;76.74;102821.56;5073413;28;20435;-78
2022/01/20 06:55:53;;;;;;;8.10;2.53;;;;;;;3.43;77.45;102810.97;5072514;28;20468;-78
2022/01/20 06:58:21;;;;;;;11.63;1.85;;;;;;;3.31;79.49;102826.47;5072602;28;20120;-79
2022/01/20 07:00:46;;;;;;;9.65;2.03;;;;;;;3.25;79.57;102822.03;5068577;28;20021;-76
2022/01/20 07:03:12;;;;;;;13.00;3.13;;;;;;;3.26;79.07;102833.34;5073152;28;20028;-76
2022/01/20 07:05:37;;;;;;;7.78;1.90;;;;;;;3.38;77.74;102835.34;5072617;28;20089;-75
2022/01/20 07:08:02;;;;;;;10.80;2.42;;;;;;;3.43;78.94;102850.25;5072566;28;20408;-78
2022/01/20 07:10:28;;;;;;;13.82;1.77;;;;;;;3.56;78.69;102847.84;5072062;28;20112;-75
2022/01/20 07:12:54;;;;;;;11.75;2.10;;;;;;;3.63;78.24;102851.47;5071104;28;20056;-76
2022/01/20 07:15:20;;;;;;;13.70;1.70;;;;;;;3.69;77.66;102857.66;5081341;28;20055;-76
2022/01/20 07:17:45;;;;;;;10.05;2.17;;;;;;;3.72;77.47;102859.47;5091068;28;20023;-74
2022/01/20 07:20:13;;;;;;;7.35;1.75;;;;;;;3.76;76.53;102869.16;5071246;28;20144;-75
2022/01/20 07:22:38;;;;;;;12.88;2.22;;;;;;;3.76;75.96;102862.16;5072771;28;20059;-79
2022/01/20 07:25:04;;;;;;;10.05;1.90;;;;;;;3.73;76.29;102849.03;5072513;28;20052;-77
2022/01/20 07:27:29;;;;;;;8.20;1.77;;;;;;;3.72;77.16;102855.13;5072749;28;20029;-75
2022/01/20 07:29:55;;;;;;;12.18;1.92;;;;;;;3.71;76.92;102860.31;5071820;28;20029;-76
2022/01/20 07:32:20;;;;;;;10.43;1.80;;;;;;;3.71;77.99;102849.81;5070964;28;20066;-78
2022/01/20 07:34:45;;;;;;;10.07;2.40;;;;;;;3.69;78.50;102854.19;5055623;28;20025;-79
2022/01/20 07:37:11;;;;;;;10.60;1.85;;;;;;;3.70;78.75;102850.72;5057753;28;20383;-79
2022/01/20 07:39:36;;;;;;;11.90;1.90;;;;;;;3.72;79.30;102855.13;5072270;28;20078;-79
2022/01/20 07:42:02;;;;;;;11.70;1.83;;;;;;;3.73;80.27;102876.94;5063039;28;20511;-76
2022/01/20 07:44:27;;;;;;;10.57;1.90;;;;;;;3.77;80.99;102887.53;5072605;28;20038;-75
2022/01/20 07:46:53;;;;;;;10.45;2.20;;;;;;;3.72;84.62;102897.03;5072488;28;20506;-79
2022/01/20 07:49:19;;;;;;;12.20;2.60;;;;;;;3.53;88.43;102887.97;5072786;28;20017;-77
2022/01/20 07:51:44;;;;;;;9.13;1.98;;;;;;;3.31;90.24;102899.78;5072258;28;20029;-75
2022/01/20 07:54:10;;;;;;;15.43;2.83;;;;;;;3.14;90.93;102906.47;5072024;28;20032;-77
2022/01/20 07:56:36;;;;;;;11.38;2.50;;;;;;;3.03;91.62;102904.53;5072165;28;20027;-78
2022/01/20 07:59:02;;;;;;;11.15;2.22;;;;;;;3.03;90.25;102916.72;5071945;28;20048;-78
2022/01/20 08:01:27;;;;;;;12.88;2.60;;;;;;;3.04;90.10;102908.00;5072442;28;20032;-77
2022/01/20 08:03:53;;;;;;;14.85;2.40;;;;;;;3.00;89.89;102901.81;5071776;28;20044;-77
2022/01/20 08:06:22;;;;;;;17.50;2.50;;;;;;;2.98;89.92;102908.78;5071883;28;20044;-76
2022/01/20 08:08:50;;;;;;;14.77;2.60;;;;;;;3.00;88.88;102911.44;5072224;28;20095;-79
2022/01/20 08:11:16;;;;;;;20.38;2.50;;;;;;;3.07;87.54;102905.44;5082049;28;20024;-75
2022/01/20 08:13:42;;;;;;;12.13;2.15;;;;;;;3.11;86.70;102913.38;5063777;28;20032;-78
2022/01/20 08:16:07;;;;;;;14.85;2.33;;;;;;;3.18;85.26;102909.16;5068140;28;20040;-79
2022/01/20 08:18:33;;;;;;;13.70;2.58;;;;;;;3.26;85.55;102912.81;5072550;28;20068;-79
2022/01/20 08:20:58;;;;;;;12.98;2.47;;;;;;;3.38;84.98;102904.28;5068782;28;20020;-76
2022/01/20 08:23:24;;;;;;;15.13;2.45;;;;;;;3.46;84.54;102906.19;5071043;28;20108;-78
2022/01/20 08:25:50;;;;;;;13.13;2.30;;;;;;;3.51;84.48;102912.38;5071605;28;20375;-79
2022/01/20 08:28:18;;;;;;;14.98;2.17;;;;;;;3.52;83.94;102909.78;5070915;28;20064;-77
2022/01/20 08:30:43;;;;;;;12.68;2.35;;;;;;;3.57;82.04;102907.25;5072477;28;20563;-79
2022/01/20 08:33:09;;;;;;;14.32;3.85;;;;;;;3.61;81.58;102907.31;5069147;28;20032;-78
2022/01/20 08:35:35;;;;;;;15.63;2.50;;;;;;;3.65;80.58;102916.13;5066688;28;20028;-79
2022/01/20 08:38:01;;;;;;;14.93;2.22;;;;;;;3.73;78.69;102906.69;5068753;28;20070;-80
2022/01/20 08:40:27;;;;;;;12.30;2.75;;;;;;;3.84;78.85;102908.59;5072083;28;20594;-81
2022/01/20 08:42:55;;;;;;;18.05;2.83;;;;;;;3.88;78.21;102919.13;5069492;28;20057;-80
2022/01/20 08:45:24;;;;;;;17.73;2.53;;;;;;;3.97;77.59;102930.66;5070318;28;20112;-80
2022/01/20 08:47:52;;;;;;;24.35;3.03;;;;;;;4.02;77.40;102929.84;5072970;28;20033;-78
2022/01/20 08:50:18;;;;;;;14.85;2.65;;;;;;;4.04;74.98;102935.09;5072695;28;20031;-80
2022/01/20 08:52:44;;;;;;;15.50;2.28;;;;;;;4.03;75.27;102936.88;5075564;28;20477;-80
2022/01/20 08:55:09;;;;;;;14.63;2.80;;;;;;;4.04;76.54;102941.25;5074768;28;20020;-77
2022/01/20 08:57:35;;;;;;;13.38;2.65;;;;;;;4.09;76.11;102957.03;5075180;28;20037;-79
2022/01/20 09:00:01;;;;;;;13.68;2.30;;;;;;;4.10;76.89;102948.31;5069696;28;20028;-78
2022/01/20 09:02:26;;;;;;;10.93;2.40;;;;;;;4.10;77.69;102964.06;5075672;28;20025;-79
2022/01/20 09:04:52;;;;;;;17.08;3.33;;;;;;;4.10;77.33;102969.31;5068036;28;20021;-79
2022/01/20 09:07:18;;;;;;;10.95;2.30;;;;;;;4.02;78.73;102974.41;5074902;28;20079;-78
2022/01/20 09:09:46;;;;;;;19.65;2.75;;;;;;;3.95;78.78;102969.91;5075362;28;20032;-80
2022/01/20 09:15:27;;;;;;;20.27;3.08;;;;;;;3.92;79.29;102973.38;5075316;28;20107;-78
2022/01/20 09:17:49;;;;;;;16.90;2.53;;;;;;;4.22;75.30;102989.59;5075252;28;20584;-79
2022/01/20 09:20:15;;;;;;;16.58;2.60;;;;;;;4.44;74.58;103001.31;5075085;28;20042;-79
2022/01/20 09:22:41;;;;;;;12.88;2.30;;;;;;;4.52;73.93;103001.44;5074651;28;20066;-79
2022/01/20 09:25:07;;;;;;;14.55;2.30;;;;;;;4.55;73.61;103001.47;5075568;28;20067;-76
2022/01/20 09:27:33;;;;;;;11.75;2.13;;;;;;;4.52;74.90;102997.06;5074531;28;20044;-80
2022/01/20 09:30:01;;;;;;;16.23;2.58;;;;;;;4.50;74.21;102995.28;5074724;28;20100;-76
2022/01/20 09:32:28;;;;;;;15.85;2.53;;;;;;;4.47;73.88;103000.50;5068488;28;20480;-79
2022/01/20 09:34:56;;;;;;;16.95;2.90;;;;;;;4.43;74.98;103010.06;5069111;28;20039;-79
2022/01/20 09:37:21;;;;;;;18.50;2.40;;;;;;;4.33;75.64;103008.13;5069550;28;20081;-80
2022/01/20 09:39:47;;;;;;;16.40;2.35;;;;;;;4.29;76.74;103011.56;5073942;28;20036;-79
2022/01/20 09:42:13;;;;;;;15.27;3.88;;;;;;;4.31;77.03;103002.88;5066669;28;20020;-79
2022/01/20 09:44:44;;;;;;;17.30;2.28;;;;;;;4.53;75.85;102996.22;5068356;28;20070;-80
2022/01/20 09:47:10;;;;;;;15.25;2.75;;;;;;;4.80;74.16;103004.47;5073894;28;21292;-80
2022/01/20 09:49:37;;;;;;;13.55;2.42;;;;;;;5.09;72.12;102997.88;5072111;28;20107;-77
2022/01/20 09:52:03;;;;;;;11.38;2.78;;;;;;;4.97;69.25;102995.06;5073212;28;20086;-81
2022/01/20 09:54:28;;;;;;;9.63;1.95;;;;;;;4.82;71.33;103001.03;5074626;28;20411;-77
2022/01/20 09:56:55;;;;;;;19.05;3.05;;;;;;;4.67;74.17;103030.53;5074690;28;20037;-79
2022/01/20 09:59:21;;;;;;;14.93;2.97;;;;;;;4.53;76.45;103011.97;5069295;28;20041;-78
2022/01/20 10:01:50;;;;;;;9.40;2.38;;;;;;;4.47;78.14;103021.47;5073949;28;20400;-80
2022/01/20 10:04:27;;;;;;;15.85;3.15;;;;;;;4.42;78.42;103029.28;5073790;28;20020;-80
2022/01/20 10:07:04;;;;;;;8.45;1.77;;;;;;;4.39;77.31;103030.09;5071542;28;20041;-77
2022/01/20 10:09:35;;;;;;;18.63;2.83;;;;;;;4.35;78.02;103036.16;5073159;28;20032;-75
2022/01/20 10:12:01;;;;;;;15.30;2.38;;;;;;;4.24;76.41;103046.44;5072825;28;20024;-76
2022/01/20 10:14:38;;;;;;;14.07;2.67;;;;;;;4.19;76.69;103058.59;5073897;28;20024;-78
2022/01/20 10:17:20;;;;;;;14.20;2.97;;;;;;;4.49;76.03;103057.38;5067589;28;20035;-77
2022/01/20 10:19:46;;;;;;;10.68;2.25;;;;;;;5.89;70.67;103065.38;5073233;28;20020;-78
2022/01/20 10:22:17;;;;;;;8.45;1.88;;;;;;;6.80;63.70;103054.75;5073771;28;20020;-77
2022/01/20 10:25:14;;;;;;;11.98;2.25;;;;;;;7.60;61.15;103049.03;5070980;28;20027;-77
2022/01/20 10:27:48;;;;;;;12.93;2.22;;;;;;;7.17;61.72;103076.06;5073558;28;20064;-76
2022/01/20 10:30:15;;;;;;;12.50;2.30;;;;;;;7.14;61.31;103069.03;5068747;28;20395;-76
2022/01/20 10:32:46;;;;;;;10.57;2.70;;;;;;;7.15;61.93;103070.78;5073410;28;20028;-78
2022/01/20 10:35:13;;;;;;;11.60;2.10;;;;;;;7.05;61.88;103067.22;5073437;28;20427;-77
2022/01/20 10:37:41;;;;;;;13.13;2.47;;;;;;;7.70;60.98;103070.13;5073473;28;20037;-75
2022/01/20 10:40:12;;;;;;;17.60;3.45;;;;;;;8.47;59.92;103079.09;5073181;28;20056;-78
2022/01/20 10:42:43;;;;;;;16.30;2.57;;;;;;;8.74;56.61;103075.53;5073675;28;20107;-78
2022/01/20 10:45:21;;;;;;;13.38;2.90;;;;;;;8.99;56.31;103079.03;5072086;28;20024;-77
2022/01/20 10:47:49;;;;;;;8.65;2.15;;;;;;;8.89;56.13;103082.59;5073446;28;20029;-78
2022/01/20 10:50:20;;;;;;;10.90;2.42;;;;;;;8.67;56.89;103081.72;5073300;28;20033;-76
2022/01/20 10:52:47;;;;;;;16.23;3.00;;;;;;;8.84;56.86;103084.34;5072714;28;20429;-77
2022/01/20 10:55:34;;;;;;;15.57;2.45;;;;;;;8.19;59.04;103095.75;5073657;28;20137;-76
2022/01/20 10:58:15;;;;;;;13.18;2.33;;;;;;;8.06;58.37;103090.44;5072731;28;20045;-75
2022/01/20 11:00:45;;;;;;;12.57;2.45;;;;;;;7.33;61.38;103090.22;5072560;28;20035;-78
2022/01/20 11:03:11;;;;;;;14.32;2.25;;;;;;;6.80;63.60;103086.38;5072883;28;20078;-78
2022/01/20 11:05:38;;;;;;;14.57;2.50;;;;;;;6.34;66.22;103081.59;5072500;28;20032;-78
2022/01/20 11:08:06;;;;;;;13.93;2.88;;;;;;;5.94;67.98;103096.97;5072692;28;20119;-77
2022/01/20 11:10:31;;;;;;;16.95;3.08;;;;;;;5.85;68.95;103101.25;5072690;28;20024;-74
2022/01/20 11:12:57;;;;;;;11.82;2.30;;;;;;;5.88;69.43;103100.41;5071230;28;20490;-79
2022/01/20 11:15:24;;;;;;;14.45;2.75;;;;;;;5.78;70.45;103109.97;5072858;28;20020;-78
2022/01/20 11:17:55;;;;;;;14.05;2.70;;;;;;;5.65;70.89;103127.31;5072539;28;20103;-77
2022/01/20 11:20:25;;;;;;;7.97;1.48;;;;;;;4.82;76.19;103111.28;5072037;28;20101;-77
2022/01/20 11:22:52;;;;;;;11.70;1.40;;;;;;;4.19;81.89;103107.56;5062849;28;20029;-76
2022/01/20 11:25:21;;;;;;;11.20;1.98;;;;;;;4.08;86.14;103108.25;5069920;28;20456;-74
2022/01/20 11:27:47;;;;;;;9.32;1.80;;;;;;;4.08;87.94;103097.75;5072432;28;20462;-76
2022/01/20 11:30:14;;;;;;;12.82;1.95;;;;;;;4.19;87.98;103104.94;5072446;28;20111;-78
2022/01/20 11:32:39;;;;;;;13.75;1.80;;;;;;;4.44;87.17;103093.16;5072087;28;20373;-75
2022/01/20 11:35:08;;;;;;;10.55;1.80;;;;;;;4.63;85.60;103094.34;5070962;28;20022;-77
2022/01/20 11:37:40;;;;;;;11.65;2.30;;;;;;;4.62;85.06;103083.78;5058878;28;20040;-77
2022/01/20 11:40:08;;;;;;;14.43;2.92;;;;;;;5.69;83.72;103084.44;5069336;28;20090;-75
2022/01/20 11:42:34;;;;;;;15.00;2.20;;;;;;;6.49;76.89;103062.44;5072803;28;20365;-77
2022/01/20 11:44:59;;;;;;;12.23;2.67;;;;;;;7.07;75.18;103066.34;5071675;28;20111;-76
2022/01/20 11:47:32;;;;;;;16.05;3.17;;;;;;;7.58;69.97;103069.22;5068856;28;20056;-75
2022/01/20 11:49:58;;;;;;;11.63;2.05;;;;;;;8.58;69.76;103052.66;5052620;28;20025;-77
2022/01/20 11:52:26;;;;;;;11.73;2.47;;;;;;;7.96;66.07;103055.25;5070712;28;20042;-75
2022/01/20 11:54:51;;;;;;;14.07;2.88;;;;;;;7.05;70.06;103053.16;5072500;28;20024;-77
2022/01/20 11:57:27;;;;;;;16.08;2.42;;;;;;;6.64;73.07;103062.56;5072451;28;20040;-77
2022/01/20 12:00:02;;;;;;;16.77;2.25;;;;;;;6.15;72.79;103064.78;5058018;28;20040;-76
2022/01/20 12:02:33;;;;;;;13.18;2.45;;;;;;;5.89;75.42;103060.09;5067397;28;20025;-76
2022/01/20 12:05:00;;;;;;;9.25;2.10;;;;;;;6.02;75.40;103046.25;5068233;28;20057;-73
2022/01/20 12:07:28;;;;;;;10.68;2.00;;;;;;;6.15;71.90;103043.72;5068317;28;20036;-76
2022/01/20 12:10:07;;;;;;;15.05;2.38;;;;;;;5.91;72.67;103042.59;5065939;28;20028;-74
2022/01/20 12:12:32;;;;;;;15.18;2.25;;;;;;;5.64;75.18;103054.59;5070495;28;20021;-73
2022/01/20 12:15:10;;;;;;;16.75;2.38;;;;;;;5.48;77.62;103040.38;5071133;28;20534;-74
2022/01/20 12:17:37;;;;;;;14.20;2.28;;;;;;;5.40;79.17;103039.41;5072333;28;20021;-74
2022/01/20 12:20:07;;;;;;;11.25;1.98;;;;;;;5.27;78.40;103050.59;5071937;28;20506;-76
2022/01/20 12:22:39;;;;;;;5.47;1.75;;;;;;;5.40;75.11;103040.28;5072034;28;20056;-74
2022/01/20 12:25:04;;;;;;;9.50;1.52;;;;;;;6.18;70.27;103043.78;5081615;28;20421;-75
2022/01/20 12:27:30;;;;;;;9.52;1.42;;;;;;;6.97;67.44;103041.69;5075495;28;20078;-75
2022/01/20 12:29:56;;;;;;;8.35;2.00;;;;;;;7.78;65.69;103049.06;5073555;28;20467;-76
2022/01/20 12:32:24;;;;;;;8.65;2.05;;;;;;;8.23;63.32;103050.91;5067860;28;20038;-74